Wind From: 10-12-2017 19:04 Until: 11-12-2017 16:00 warning for: Wind Level: Orange info button

Power and phone distribution networks may be disrupted for relatively long periods., Roofs and chimneys can be damaged. , Tree branches may break. , Vehicles can be deported. , Traffic may be disrupted, particularly on secondary roads in forest areas. Limit your trips. , Limit your speed in highway driving, especially if you drive a vehicle or hitch sensitive to wind. , Do not go for walks in forests or along the coast., In town, be vigilant against possible falling objects., Do not work on roofs and do not touch any electrical line fallen on the ground., Store or secure sensitive objects to wind or likely to be damaged., Always install power generators outside buildings. 


Meteo18 Weather Cam more information Meteo18 Weather Cam


Thunder radar more information blitzortung!


Rain radar more information rain snow radar


Visit our other weather sites:

Template documentation
and downloads

And another site



Weather Underground History page Text

Daily Summary for May 26, 2017 Units:  English    Metric   Both
« Previous Day
Next Day »
Daily Weekly Monthly Yearly Custom
  High: Low: Average:
Temperature: 84.6 °F 55.9 °F 70 °F
Dew Point: 64.2 °F 51.6 °F 57.9 °F
Humidity: 87 % 45 % 67 %
Wind Speed: 10 mph 0 mph 2.5 mph
Wind Gust: 12 mph - -
Wind:- - East
Pressure: 30.1 in 29.9 in -
Precipitation: 0 in    
Historical Graphs
 
 
Tabular Data for May 26, 2017
Time Temperature Dew Point Pressure Wind Wind Speed Wind Gust Humidity Rainfall Rate (Hourly)
00:02 64.6 °F 54.1 °F 30.1 in NE 4 mph 6 mph 69 % 0 in
00:12 63.7 °F 54.1 °F 30.1 in NE 4 mph 6 mph 71 % 0 in
00:17 63.1 °F 54 °F 30.1 in NE 4 mph 6 mph 72 % 0 in
00:22 63 °F 54.1 °F 30.1 in ENE 3 mph 7 mph 73 % 0 in
00:32 63 °F 54.1 °F 30.1 in NE 5 mph 8 mph 73 % 0 in
00:37 63.1 °F 54 °F 30.1 in NNE 4 mph 8 mph 72 % 0 in
00:42 63.3 °F 54.1 °F 30.1 in NNE 5 mph 10 mph 72 % 0 in
00:47 63.3 °F 54.1 °F 30.1 in NE 6 mph 10 mph 72 % 0 in
00:57 63.3 °F 53.8 °F 30.1 in NE 6 mph 8 mph 71 % 0 in
01:02 63.1 °F 54 °F 30.1 in NNE 5 mph 8 mph 72 % 0 in
01:07 63 °F 53.8 °F 30.1 in NE 5 mph 8 mph 72 % 0 in
01:12 62.6 °F 53.8 °F 30.1 in NE 4 mph 8 mph 73 % 0 in
01:17 62.4 °F 53.6 °F 30.1 in NE 4 mph 8 mph 73 % 0 in
01:27 62.4 °F 53.2 °F 30.1 in NNE 6 mph 8 mph 72 % 0 in
01:32 62.6 °F 53.4 °F 30.1 in North 3 mph 8 mph 72 % 0 in
01:37 62.8 °F 53.6 °F 30.1 in NNE 6 mph 7 mph 72 % 0 in
01:42 62.6 °F 53.4 °F 30.1 in NNE 3 mph 7 mph 72 % 0 in
01:47 62.1 °F 53.2 °F 30.1 in NNW 1 mph 6 mph 73 % 0 in
01:52 61.5 °F 53.2 °F 30.1 in NNE 1 mph 6 mph 74 % 0 in
01:57 61.2 °F 53.2 °F 30.1 in NE 1 mph 5 mph 75 % 0 in
02:02 60.6 °F 53.1 °F 30.1 in North 2 mph 5 mph 76 % 0 in
02:12 60.1 °F 52.9 °F 30.1 in Calm   4 mph 77 % 0 in
02:17 59.9 °F 53.1 °F 30.1 in NNE 2 mph 4 mph 78 % 0 in
02:22 59.7 °F 52.9 °F 30.1 in NNE 1 mph 4 mph 78 % 0 in
02:32 59.4 °F 52.5 °F 30.1 in Calm   3 mph 78 % 0 in
02:37 59.2 °F 52.7 °F 30.1 in NNE 3 mph 3 mph 79 % 0 in
02:42 59 °F 52.5 °F 30.1 in NE 2 mph 3 mph 79 % 0 in
02:47 58.8 °F 52.3 °F 30.1 in NNE 2 mph 3 mph 79 % 0 in
02:52 58.8 °F 52.7 °F 30.1 in NNE 1 mph 4 mph 80 % 0 in
02:57 58.6 °F 52.5 °F 30.1 in NE 2 mph 4 mph 80 % 0 in
03:02 58.5 °F 52.3 °F 30.1 in Calm   4 mph 80 % 0 in
03:12 58.1 °F 52.3 °F 30.1 in NNE 3 mph 5 mph 81 % 0 in
03:17 57.9 °F 52.5 °F 30.1 in NE 4 mph 6 mph 82 % 0 in
03:22 57.9 °F 52.5 °F 30.1 in North 1 mph 6 mph 82 % 0 in
03:27 57.9 °F 52.5 °F 30.1 in North 2 mph 6 mph 82 % 0 in
03:32 57.9 °F 52.5 °F 30 in Calm   6 mph 82 % 0 in
03:37 57.7 °F 52.7 °F 30 in NNW 4 mph 6 mph 83 % 0 in
03:42 57.7 °F 52.7 °F 30 in NNE 4 mph 6 mph 83 % 0 in
03:52 57.2 °F 52.3 °F 30 in NNE 3 mph 7 mph 84 % 0 in
03:57 57 °F 52.2 °F 30 in NE 3 mph 6 mph 84 % 0 in
04:02 57 °F 52.2 °F 30 in NE 2 mph 6 mph 84 % 0 in
04:12 57.6 °F 52.7 °F 30 in North 1 mph 6 mph 84 % 0 in
04:17 57.4 °F 52.5 °F 30 in NNE 5 mph 7 mph 84 % 0 in
04:22 57.2 °F 52.7 °F 30 in Calm   7 mph 85 % 0 in
04:32 57.4 °F 52.9 °F 30 in NNW 5 mph 9 mph 85 % 0 in
04:37 57.4 °F 52.5 °F 30 in NNW 1 mph 6 mph 84 % 0 in
04:42 57.6 °F 52.7 °F 30 in North 1 mph 6 mph 84 % 0 in
04:52 57.4 °F 52.5 °F 30 in Calm   5 mph 84 % 0 in
04:57 57 °F 52.5 °F 30 in NNW 3 mph 3 mph 85 % 0 in
05:02 57 °F 52.5 °F 30 in North 5 mph 5 mph 85 % 0 in
05:12 56.7 °F 52.5 °F 30 in NNE 3 mph 5 mph 86 % 0 in
05:17 56.7 °F 52.5 °F 30 in North 2 mph 6 mph 86 % 0 in
05:22 56.7 °F 52.5 °F 30 in North 4 mph 6 mph 86 % 0 in
05:32 56.7 °F 52.5 °F 30 in NNE 3 mph 6 mph 86 % 0 in
05:37 56.5 °F 52.3 °F 30 in NNE 4 mph 6 mph 86 % 0 in
05:42 56.5 °F 52.3 °F 30 in NNE 1 mph 6 mph 86 % 0 in
05:47 56.7 °F 52.5 °F 30 in NNE 2 mph 7 mph 86 % 0 in
05:52 56.8 °F 52.3 °F 30 in NE 2 mph 7 mph 85 % 0 in
06:02 56.5 °F 52 °F 30 in NNW 1 mph 5 mph 85 % 0 in
06:07 56.5 °F 52.3 °F 30 in Calm   4 mph 86 % 0 in
06:12 56.5 °F 52.3 °F 30 in North 1 mph 4 mph 86 % 0 in
06:17 56.1 °F 51.6 °F 30 in North 2 mph 4 mph 85 % 0 in
06:22 55.9 °F 51.8 °F 30 in NNE 4 mph 4 mph 86 % 0 in
06:32 56.5 °F 52.7 °F 30 in NNE 3 mph 4 mph 87 % 0 in
06:37 57.4 °F 52.5 °F 30 in Calm   4 mph 84 % 0 in
06:42 57.6 °F 52.5 °F 30 in Calm   4 mph 83 % 0 in
06:52 58.1 °F 52.7 °F 30 in Calm   4 mph 82 % 0 in
07:02 58.8 °F 53.1 °F 30 in NNE 2 mph 2 mph 81 % 0 in
07:07 59.2 °F 53.1 °F 30 in NNE 1 mph 2 mph 80 % 0 in
07:12 59.4 °F 53.2 °F 30 in NNE 3 mph 5 mph 80 % 0 in
07:17 59.5 °F 53.4 °F 30 in ENE 3 mph 5 mph 80 % 0 in
07:22 59.7 °F 53.2 °F 30 in NNE 3 mph 7 mph 79 % 0 in
07:32 60.1 °F 53.6 °F 30 in NNE 2 mph 8 mph 79 % 0 in
07:42 60.3 °F 53.1 °F 30 in NE 6 mph 8 mph 77 % 0 in
07:52 60.8 °F 53.6 °F 30 in ENE 3 mph 9 mph 77 % 0 in
07:57 61.2 °F 54 °F 30 in ENE 3 mph 9 mph 77 % 0 in
08:02 61.5 °F 54.7 °F 30 in East 2 mph 8 mph 78 % 0 in
08:12 61.9 °F 54.3 °F 30 in ENE 2 mph 5 mph 76 % 0 in
08:17 62.2 °F 54.5 °F 30 in East 4 mph 5 mph 76 % 0 in
08:22 62.2 °F 54.5 °F 30 in East 3 mph 6 mph 76 % 0 in
08:32 62.8 °F 54.3 °F 30.1 in ENE 4 mph 6 mph 74 % 0 in
08:42 62.8 °F 54.7 °F 30.1 in NNE 3 mph 6 mph 75 % 0 in
08:52 63.1 °F 54.7 °F 30.1 in NE 2 mph 6 mph 74 % 0 in
09:02 63.7 °F 54.9 °F 30.1 in NNE 4 mph 6 mph 73 % 0 in
09:12 64 °F 55.2 °F 30 in ENE 3 mph 7 mph 73 % 0 in
09:22 64.8 °F 55.6 °F 30 in ENE 4 mph 7 mph 72 % 0 in
09:32 65.1 °F 55.4 °F 30 in ENE 5 mph 8 mph 71 % 0 in
09:42 65.7 °F 56.3 °F 30 in NE 4 mph 8 mph 72 % 0 in
09:47 66 °F 55.9 °F 30 in ENE 2 mph 8 mph 70 % 0 in
09:52 66.4 °F 56.3 °F 30 in NE 4 mph 7 mph 70 % 0 in
10:02 67.3 °F 57.2 °F 30 in NE 5 mph 7 mph 70 % 0 in
10:12 67.5 °F 56.5 °F 30 in NE 5 mph 7 mph 68 % 0 in
10:17 67.6 °F 56.3 °F 30 in NE 3 mph 7 mph 67 % 0 in
10:22 67.8 °F 56.5 °F 30 in ENE 5 mph 8 mph 67 % 0 in
10:32 68.7 °F 57.4 °F 30 in ENE 8 mph 10 mph 67 % 0 in
10:37 68.9 °F 56.7 °F 30 in NE 4 mph 10 mph 65 % 0 in
10:42 69.3 °F 57 °F 30 in ENE 6 mph 10 mph 65 % 0 in
10:47 69.3 °F 56.5 °F 30 in NE 5 mph 10 mph 64 % 0 in
10:57 69.6 °F 57.7 °F 30 in ENE 5 mph 11 mph 66 % 0 in
11:02 70.2 °F 57.4 °F 30 in ENE 6 mph 11 mph 64 % 0 in
11:12 70.7 °F 57.9 °F 30 in ENE 4 mph 10 mph 64 % 0 in
11:17 71.1 °F 57.7 °F 30 in ENE 9 mph 10 mph 63 % 0 in
11:22 71.1 °F 57.7 °F 30 in NE 5 mph 12 mph 63 % 0 in
11:32 71.4 °F 57.7 °F 30 in East 6 mph 11 mph 62 % 0 in
11:37 72 °F 57.4 °F 30 in East 4 mph 11 mph 60 % 0 in
11:42 72.3 °F 58.1 °F 30 in NE 6 mph 10 mph 61 % 0 in
11:52 72.9 °F 58.6 °F 30 in ENE 10 mph 11 mph 61 % 0 in
12:02 73.2 °F 59 °F 30 in East 2 mph 12 mph 61 % 0 in
12:12 73.8 °F 58.5 °F 30 in ENE 7 mph 12 mph 59 % 0 in
12:17 74.1 °F 59.7 °F 30 in ESE 5 mph 12 mph 61 % 0 in
12:22 74.5 °F 60.1 °F 30 in ENE 5 mph 11 mph 61 % 0 in
12:32 75 °F 58.8 °F 30 in ENE 2 mph 11 mph 57 % 0 in
12:37 75.4 °F 59.5 °F 30 in ENE 6 mph 9 mph 58 % 0 in
12:42 75.4 °F 59.5 °F 30 in East 5 mph 9 mph 58 % 0 in
12:47 75.6 °F 59.7 °F 30 in NE 6 mph 9 mph 58 % 0 in
12:52 75.9 °F 59.2 °F 30 in ENE 5 mph 10 mph 56 % 0 in
13:02 76.6 °F 59.2 °F 30 in ENE 3 mph 9 mph 55 % 0 in
13:12 77.2 °F 59.2 °F 30 in Calm   9 mph 54 % 0 in
13:17 77.7 °F 60.8 °F 30 in ESE 5 mph 8 mph 56 % 0 in
13:22 77.5 °F 61.2 °F 30 in East 5 mph 8 mph 57 % 0 in
13:32 77.4 °F 60.4 °F 30 in NE 3 mph 10 mph 56 % 0 in
13:42 78.3 °F 61.3 °F 30 in SE 2 mph 10 mph 56 % 0 in
13:52 78.6 °F 60.6 °F 30 in Calm   7 mph 54 % 0 in
14:02 79.7 °F 62.1 °F 30 in SE 1 mph 6 mph 55 % 0 in
14:12 80.4 °F 62.2 °F 30 in Calm   6 mph 54 % 0 in
14:17 81 °F 62.8 °F 30 in ESE 2 mph 8 mph 54 % 0 in
14:22 80.4 °F 61.7 °F 30 in SE 2 mph 8 mph 53 % 0 in
14:32 80.4 °F 61.7 °F 30 in Calm   8 mph 53 % 0 in
14:37 81.1 °F 62.4 °F 30 in ESE 6 mph 6 mph 53 % 0 in
14:42 81.3 °F 62.1 °F 30 in East 4 mph 6 mph 52 % 0 in
14:47 81.3 °F 62.6 °F 30 in SE 5 mph 7 mph 53 % 0 in
14:52 81 °F 61.7 °F 30 in East 2 mph 7 mph 52 % 0 in
14:57 81 °F 61.7 °F 30 in East 1 mph 9 mph 52 % 0 in
15:02 81 °F 62.2 °F 30 in NNE 7 mph 9 mph 53 % 0 in
15:12 81 °F 63.3 °F 30 in SE 3 mph 9 mph 55 % 0 in
15:17 81.1 °F 62.4 °F 30 in ENE 3 mph 9 mph 53 % 0 in
15:22 81.1 °F 62.4 °F 30 in SE 4 mph 8 mph 53 % 0 in
15:32 81.3 °F 62.1 °F 30 in ENE 2 mph 5 mph 52 % 0 in
15:42 81.1 °F 61.9 °F 30 in ESE 1 mph 7 mph 52 % 0 in
15:52 81.5 °F 63.9 °F 30 in ESE 3 mph 9 mph 55 % 0 in
15:57 81.9 °F 63 °F 30 in SSW 3 mph 9 mph 53 % 0 in
16:02 82.6 °F 62.6 °F 30 in SE 1 mph 9 mph 51 % 0 in
16:12 82 °F 62.1 °F 30 in East 4 mph 6 mph 51 % 0 in
16:17 82 °F 62.1 °F 30 in East 2 mph 6 mph 51 % 0 in
16:22 82.6 °F 62.6 °F 30 in ESE 1 mph 7 mph 51 % 0 in
16:32 82.2 °F 61.7 °F 30 in SE 3 mph 7 mph 50 % 0 in
16:37 82.6 °F 61.5 °F 30 in SE 4 mph 8 mph 49 % 0 in
16:42 83.1 °F 63.7 °F 30 in ENE 3 mph 8 mph 52 % 0 in
16:47 83.7 °F 63 °F 30 in South 5 mph 8 mph 50 % 0 in
16:52 83.8 °F 63.1 °F 30 in East 2 mph 5 mph 50 % 0 in
16:57 82.9 °F 61.9 °F 30 in ENE 2 mph 7 mph 49 % 0 in
17:02 82.9 °F 61.9 °F 30 in South 3 mph 7 mph 49 % 0 in
17:12 83.8 °F 62.6 °F 30 in ENE 5 mph 8 mph 49 % 0 in
17:17 83.7 °F 62.4 °F 30 in East 3 mph 8 mph 49 % 0 in
17:22 83.5 °F 64 °F 30 in SE 1 mph 7 mph 52 % 0 in
17:32 83.7 °F 63.7 °F 30 in South 2 mph 7 mph 51 % 0 in
17:42 84.4 °F 62.6 °F 30 in Calm   6 mph 48 % 0 in
17:52 84.2 °F 62.4 °F 30 in ESE 1 mph 5 mph 48 % 0 in
17:57 84.4 °F 61.9 °F 30 in SE 2 mph 5 mph 47 % 0 in
18:02 84 °F 62.2 °F 30 in Calm   5 mph 48 % 0 in
18:12 84 °F 61.7 °F 30 in Calm   7 mph 47 % 0 in
18:17 84.4 °F 61.9 °F 30 in Calm   7 mph 47 % 0 in
18:22 84.4 °F 62.6 °F 30 in SE 2 mph 3 mph 48 % 0 in
18:32 84.6 °F 60.8 °F 30 in ESE 2 mph 5 mph 45 % 0 in
18:42 84 °F 61 °F 30 in ESE 1 mph 4 mph 46 % 0 in
18:47 83.8 °F 62.1 °F 30 in East 1 mph 4 mph 48 % 0 in
18:52 83.8 °F 62.1 °F 30 in Calm   3 mph 48 % 0 in
19:02 83.7 °F 64.2 °F 29.9 in SE 1 mph 4 mph 52 % 0 in
19:12 82.9 °F 63 °F 29.9 in Calm   4 mph 51 % 0 in
19:17 82.6 °F 63.1 °F 29.9 in ESE 2 mph 4 mph 52 % 0 in
19:22 82 °F 63.1 °F 29.9 in ENE 3 mph 4 mph 53 % 0 in
19:32 81.9 °F 63 °F 30 in East 3 mph 5 mph 53 % 0 in
19:37 81.7 °F 63.5 °F 29.9 in ENE 1 mph 5 mph 54 % 0 in
19:42 81.7 °F 63.9 °F 29.9 in East 1 mph 5 mph 55 % 0 in
19:47 81.7 °F 63.9 °F 30 in Calm   4 mph 55 % 0 in
19:52 81.5 °F 63.3 °F 30 in Calm   4 mph 54 % 0 in
20:02 81.7 °F 63.5 °F 30 in East 1 mph 4 mph 54 % 0 in
20:12 81.3 °F 63.7 °F 30 in Calm   3 mph 55 % 0 in
20:17 81.1 °F 63.5 °F 30 in Calm   3 mph 55 % 0 in
20:22 81.1 °F 64 °F 30 in Calm   2 mph 56 % 0 in
20:27 81 °F 63.9 °F 30 in Calm   1 mph 56 % 0 in
20:32 80.8 °F 63.7 °F 30 in Calm     56 % 0 in
20:37 80.2 °F 63.1 °F 30 in ENE 2 mph 2 mph 56 % 0 in
20:42 79.9 °F 63.3 °F 30 in East 2 mph 2 mph 57 % 0 in
20:52 79.2 °F 63.1 °F 30 in East 2 mph 3 mph 58 % 0 in
20:57 78.6 °F 63.1 °F 30 in Calm   3 mph 59 % 0 in
21:02 78.4 °F 62.4 °F 30 in Calm   3 mph 58 % 0 in
21:12 77.5 °F 62.1 °F 30 in East 3 mph 3 mph 59 % 0 in
21:17 77.4 °F 62.4 °F 30 in Calm   3 mph 60 % 0 in
21:22 77 °F 62.1 °F 30 in Calm   3 mph 60 % 0 in
21:32 75.7 °F 62.2 °F 30 in Calm   3 mph 63 % 0 in
21:37 75 °F 62.1 °F 30 in Calm   1 mph 64 % 0 in
21:42 74.5 °F 62.4 °F 30 in Calm   1 mph 66 % 0 in
21:47 73.6 °F 61.9 °F 30 in Calm     67 % 0 in
21:52 72.9 °F 61.7 °F 30 in Calm     68 % 0 in
22:02 72.3 °F 61.2 °F 30 in Calm   1 mph 68 % 0 in
22:12 72.1 °F 61 °F 30 in Calm   1 mph 68 % 0 in
22:17 71.8 °F 60.6 °F 30 in Calm     68 % 0 in
22:22 71.1 °F 60.8 °F 30 in Calm     70 % 0 in
22:32 69.8 °F 61.2 °F 30 in Calm     74 % 0 in
22:37 69.6 °F 60.6 °F 30 in Calm     73 % 0 in
22:42 70 °F 60.6 °F 30 in Calm     72 % 0 in
22:47 70 °F 60.1 °F 30 in NE 1 mph   71 % 0 in
22:52 69.6 °F 61 °F 30 in NNE 3 mph   74 % 0 in
22:57 68.5 °F 60.6 °F 30 in NNE 3 mph 4 mph 76 % 0 in
23:02 68 °F 60.1 °F 30 in North 2 mph 4 mph 76 % 0 in
23:12 67.8 °F 60.3 °F 30 in NW 1 mph 4 mph 77 % 0 in
23:17 67.8 °F 60.3 °F 30 in Calm   4 mph 77 % 0 in
23:22 68.2 °F 60.6 °F 30 in NNE 1 mph 3 mph 77 % 0 in
23:27 68.2 °F 60.6 °F 30 in WNW 1 mph 2 mph 77 % 0 in
23:32 67.3 °F 60.3 °F 30 in WNW 2 mph 2 mph 78 % 0 in
23:37 66.7 °F 60.4 °F 30 in WNW 1 mph 2 mph 80 % 0 in
23:42 66.9 °F 60.6 °F 30 in Calm   2 mph 80 % 0 in
23:47 67.5 °F 60.4 °F 30 in NNE 1 mph 2 mph 78 % 0 in
23:52 67.6 °F 60.3 °F 30 in NNE 1 mph 2 mph 77 % 0 in
Meteo18
Compliments of Weather Underground - 4 mb

Script developed by  Jim McMurry - jmcmurry@mwt.net Adapted for the template by  Wim van der Kuil - Leuven-Template.eu

You find our weather info also at:

European Weather Network

Weather Underground

Equipment we use:

Weather-station
Davis Vue

Weather-program
Meteohub

Weather-server
Raspberry PI 2 B+

Provider
1 and 1

Davis Vue

Meteohub

Raspberry PI 2 B+

1 and 1